sensor_id;sensor_type;location;lat;lon;timestamp;temperature;humidity
28175;SHT30;59417;44.788;10.334;2022-08-03T00:01:41;27.04;51.81
28175;SHT30;59417;44.788;10.334;2022-08-03T00:04:08;27.10;51.85
28175;SHT30;59417;44.788;10.334;2022-08-03T00:06:35;27.07;52.12
28175;SHT30;59417;44.788;10.334;2022-08-03T00:09:01;27.08;51.96
28175;SHT30;59417;44.788;10.334;2022-08-03T00:11:27;27.05;51.95
28175;SHT30;59417;44.788;10.334;2022-08-03T00:13:53;26.98;51.69
28175;SHT30;59417;44.788;10.334;2022-08-03T00:16:18;26.98;52.04
28175;SHT30;59417;44.788;10.334;2022-08-03T00:18:44;26.95;52.19
28175;SHT30;59417;44.788;10.334;2022-08-03T00:21:10;27.02;51.91
28175;SHT30;59417;44.788;10.334;2022-08-03T00:23:36;27.01;52.35
28175;SHT30;59417;44.788;10.334;2022-08-03T00:26:02;26.97;51.99
28175;SHT30;59417;44.788;10.334;2022-08-03T00:28:27;26.92;52.25
28175;SHT30;59417;44.788;10.334;2022-08-03T00:30:53;26.87;52.11
28175;SHT30;59417;44.788;10.334;2022-08-03T00:33:20;26.88;52.33
28175;SHT30;59417;44.788;10.334;2022-08-03T00:35:46;26.84;52.16
28175;SHT30;59417;44.788;10.334;2022-08-03T00:38:12;26.80;53.01
28175;SHT30;59417;44.788;10.334;2022-08-03T00:40:37;26.79;52.93
28175;SHT30;59417;44.788;10.334;2022-08-03T00:43:05;26.67;52.89
28175;SHT30;59417;44.788;10.334;2022-08-03T00:45:42;26.59;52.96
28175;SHT30;59417;44.788;10.334;2022-08-03T00:48:10;26.65;53.20
28175;SHT30;59417;44.788;10.334;2022-08-03T00:50:38;26.64;53.38
28175;SHT30;59417;44.788;10.334;2022-08-03T00:53:10;26.70;53.36
28175;SHT30;59417;44.788;10.334;2022-08-03T00:55:42;26.65;54.95
28175;SHT30;59417;44.788;10.334;2022-08-03T00:58:11;26.51;54.79
28175;SHT30;59417;44.788;10.334;2022-08-03T01:00:39;26.46;54.21
28175;SHT30;59417;44.788;10.334;2022-08-03T01:03:06;26.47;54.18
28175;SHT30;59417;44.788;10.334;2022-08-03T01:11:26;26.51;54.34
28175;SHT30;59417;44.788;10.334;2022-08-03T01:14:07;26.54;54.40
28175;SHT30;59417;44.788;10.334;2022-08-03T01:19:59;26.43;54.82
28175;SHT30;59417;44.788;10.334;2022-08-03T01:25:38;26.22;55.13
28175;SHT30;59417;44.788;10.334;2022-08-03T01:31:14;26.12;55.66
28175;SHT30;59417;44.788;10.334;2022-08-03T01:33:47;26.03;55.82
28175;SHT30;59417;44.788;10.334;2022-08-03T01:36:31;26.08;55.39
28175;SHT30;59417;44.788;10.334;2022-08-03T01:39:00;26.13;54.94
28175;SHT30;59417;44.788;10.334;2022-08-03T01:41:33;26.16;56.92
28175;SHT30;59417;44.788;10.334;2022-08-03T01:44:02;26.06;56.61
28175;SHT30;59417;44.788;10.334;2022-08-03T01:46:29;25.98;56.44
28175;SHT30;59417;44.788;10.334;2022-08-03T01:48:56;25.82;56.54
28175;SHT30;59417;44.788;10.334;2022-08-03T01:51:23;26.02;55.64
28175;SHT30;59417;44.788;10.334;2022-08-03T01:53:50;26.08;56.01
28175;SHT30;59417;44.788;10.334;2022-08-03T01:56:21;25.99;55.94
28175;SHT30;59417;44.788;10.334;2022-08-03T01:58:48;25.95;56.05
28175;SHT30;59417;44.788;10.334;2022-08-03T02:01:15;25.95;56.10
28175;SHT30;59417;44.788;10.334;2022-08-03T02:03:43;25.81;56.95
28175;SHT30;59417;44.788;10.334;2022-08-03T02:06:11;25.69;56.82
28175;SHT30;59417;44.788;10.334;2022-08-03T02:08:38;25.67;56.68
28175;SHT30;59417;44.788;10.334;2022-08-03T02:11:07;25.59;56.58
28175;SHT30;59417;44.788;10.334;2022-08-03T02:13:37;25.69;56.04
28175;SHT30;59417;44.788;10.334;2022-08-03T02:16:03;25.69;57.00
28175;SHT30;59417;44.788;10.334;2022-08-03T02:18:31;25.69;56.65
28175;SHT30;59417;44.788;10.334;2022-08-03T02:21:00;25.58;56.71
28175;SHT30;59417;44.788;10.334;2022-08-03T02:23:25;25.49;57.08
28175;SHT30;59417;44.788;10.334;2022-08-03T02:25:55;25.47;56.64
28175;SHT30;59417;44.788;10.334;2022-08-03T02:28:27;25.44;57.05
28175;SHT30;59417;44.788;10.334;2022-08-03T02:30:54;25.39;57.40
28175;SHT30;59417;44.788;10.334;2022-08-03T02:33:29;25.54;57.20
28175;SHT30;59417;44.788;10.334;2022-08-03T02:35:57;25.62;56.90
28175;SHT30;59417;44.788;10.334;2022-08-03T02:38:30;25.69;56.56
28175;SHT30;59417;44.788;10.334;2022-08-03T02:40:58;25.78;56.73
28175;SHT30;59417;44.788;10.334;2022-08-03T02:43:26;25.71;56.53
28175;SHT30;59417;44.788;10.334;2022-08-03T02:45:54;25.68;56.59
28175;SHT30;59417;44.788;10.334;2022-08-03T02:48:22;25.75;56.36
28175;SHT30;59417;44.788;10.334;2022-08-03T02:50:53;25.65;55.60
28175;SHT30;59417;44.788;10.334;2022-08-03T02:53:20;25.57;57.85
28175;SHT30;59417;44.788;10.334;2022-08-03T02:55:48;25.34;57.64
28175;SHT30;59417;44.788;10.334;2022-08-03T02:58:16;25.20;56.86
28175;SHT30;59417;44.788;10.334;2022-08-03T03:00:43;25.14;56.69
28175;SHT30;59417;44.788;10.334;2022-08-03T03:03:12;25.13;56.00
28175;SHT30;59417;44.788;10.334;2022-08-03T03:05:39;25.30;55.31
28175;SHT30;59417;44.788;10.334;2022-08-03T03:08:07;25.33;55.11
28175;SHT30;59417;44.788;10.334;2022-08-03T03:10:33;25.37;55.50
28175;SHT30;59417;44.788;10.334;2022-08-03T03:13:00;25.33;55.96
28175;SHT30;59417;44.788;10.334;2022-08-03T03:15:27;25.20;55.98
28175;SHT30;59417;44.788;10.334;2022-08-03T03:17:53;25.23;56.41
28175;SHT30;59417;44.788;10.334;2022-08-03T03:20:21;25.35;56.02
28175;SHT30;59417;44.788;10.334;2022-08-03T03:22:49;25.21;55.90
28175;SHT30;59417;44.788;10.334;2022-08-03T03:25:16;25.26;55.51
28175;SHT30;59417;44.788;10.334;2022-08-03T03:27:42;25.21;55.78
28175;SHT30;59417;44.788;10.334;2022-08-03T03:30:09;25.18;56.15
28175;SHT30;59417;44.788;10.334;2022-08-03T03:32:34;25.06;56.16
28175;SHT30;59417;44.788;10.334;2022-08-03T03:35:05;24.91;56.67
28175;SHT30;59417;44.788;10.334;2022-08-03T03:37:31;24.93;56.13
28175;SHT30;59417;44.788;10.334;2022-08-03T03:39:57;24.88;56.27
28175;SHT30;59417;44.788;10.334;2022-08-03T03:42:24;24.96;56.17
28175;SHT30;59417;44.788;10.334;2022-08-03T03:44:49;24.83;56.29
28175;SHT30;59417;44.788;10.334;2022-08-03T03:47:15;24.77;56.26
28175;SHT30;59417;44.788;10.334;2022-08-03T03:49:41;24.75;57.09
28175;SHT30;59417;44.788;10.334;2022-08-03T03:52:07;24.80;56.65
28175;SHT30;59417;44.788;10.334;2022-08-03T03:54:40;24.77;57.01
28175;SHT30;59417;44.788;10.334;2022-08-03T03:57:05;24.79;56.62
28175;SHT30;59417;44.788;10.334;2022-08-03T03:59:31;24.77;57.17
28175;SHT30;59417;44.788;10.334;2022-08-03T04:01:57;24.67;57.82
28175;SHT30;59417;44.788;10.334;2022-08-03T04:04:23;24.65;57.21
28175;SHT30;59417;44.788;10.334;2022-08-03T04:07:07;24.79;56.82
28175;SHT30;59417;44.788;10.334;2022-08-03T04:09:53;24.82;56.64
28175;SHT30;59417;44.788;10.334;2022-08-03T04:12:38;24.86;56.60
28175;SHT30;59417;44.788;10.334;2022-08-03T04:15:05;24.87;57.28
28175;SHT30;59417;44.788;10.334;2022-08-03T04:17:31;24.91;56.90
28175;SHT30;59417;44.788;10.334;2022-08-03T04:19:57;24.87;56.57
28175;SHT30;59417;44.788;10.334;2022-08-03T04:22:26;24.77;56.77
28175;SHT30;59417;44.788;10.334;2022-08-03T04:25:06;24.82;56.64
28175;SHT30;59417;44.788;10.334;2022-08-03T04:27:37;24.90;56.21
28175;SHT30;59417;44.788;10.334;2022-08-03T04:30:04;24.93;55.88
28175;SHT30;59417;44.788;10.334;2022-08-03T04:32:31;24.83;56.50
28175;SHT30;59417;44.788;10.334;2022-08-03T04:34:57;24.87;56.49
28175;SHT30;59417;44.788;10.334;2022-08-03T04:37:39;24.94;55.86
28175;SHT30;59417;44.788;10.334;2022-08-03T04:40:10;24.83;56.24
28175;SHT30;59417;44.788;10.334;2022-08-03T04:42:38;24.76;56.95
28175;SHT30;59417;44.788;10.334;2022-08-03T04:45:05;24.82;56.92
28175;SHT30;59417;44.788;10.334;2022-08-03T04:47:33;24.88;56.56
28175;SHT30;59417;44.788;10.334;2022-08-03T04:50:00;24.91;57.07
28175;SHT30;59417;44.788;10.334;2022-08-03T04:52:26;24.90;56.91
28175;SHT30;59417;44.788;10.334;2022-08-03T04:54:52;24.97;55.89
28175;SHT30;59417;44.788;10.334;2022-08-03T04:57:18;24.97;56.12
28175;SHT30;59417;44.788;10.334;2022-08-03T04:59:44;24.99;56.69
28175;SHT30;59417;44.788;10.334;2022-08-03T05:02:09;25.06;56.64
28175;SHT30;59417;44.788;10.334;2022-08-03T05:04:35;25.13;55.90
28175;SHT30;59417;44.788;10.334;2022-08-03T05:07:02;25.04;56.98
28175;SHT30;59417;44.788;10.334;2022-08-03T05:09:28;25.04;56.85
28175;SHT30;59417;44.788;10.334;2022-08-03T05:11:54;25.07;55.74
28175;SHT30;59417;44.788;10.334;2022-08-03T05:14:20;25.06;56.55
28175;SHT30;59417;44.788;10.334;2022-08-03T05:16:45;25.02;56.04
28175;SHT30;59417;44.788;10.334;2022-08-03T05:19:11;25.04;56.02
28175;SHT30;59417;44.788;10.334;2022-08-03T05:21:36;25.08;55.36
28175;SHT30;59417;44.788;10.334;2022-08-03T05:24:02;25.02;55.82
28175;SHT30;59417;44.788;10.334;2022-08-03T05:26:28;25.06;56.50
28175;SHT30;59417;44.788;10.334;2022-08-03T05:28:53;25.07;56.02
28175;SHT30;59417;44.788;10.334;2022-08-03T05:31:19;25.00;55.71
28175;SHT30;59417;44.788;10.334;2022-08-03T05:33:44;24.97;56.33
28175;SHT30;59417;44.788;10.334;2022-08-03T05:36:12;25.04;56.41
28175;SHT30;59417;44.788;10.334;2022-08-03T05:38:37;24.96;56.76
28175;SHT30;59417;44.788;10.334;2022-08-03T05:41:03;25.08;56.44
28175;SHT30;59417;44.788;10.334;2022-08-03T05:43:29;25.17;56.26
28175;SHT30;59417;44.788;10.334;2022-08-03T05:45:56;25.17;56.05
28175;SHT30;59417;44.788;10.334;2022-08-03T05:48:22;25.30;56.09
28175;SHT30;59417;44.788;10.334;2022-08-03T05:50:48;25.34;56.54
28175;SHT30;59417;44.788;10.334;2022-08-03T05:53:14;25.34;56.19
28175;SHT30;59417;44.788;10.334;2022-08-03T05:55:45;25.34;56.32
28175;SHT30;59417;44.788;10.334;2022-08-03T05:58:28;25.34;56.02
28175;SHT30;59417;44.788;10.334;2022-08-03T06:00:54;25.33;56.12
28175;SHT30;59417;44.788;10.334;2022-08-03T06:03:30;25.24;56.41
28175;SHT30;59417;44.788;10.334;2022-08-03T06:05:56;25.16;56.73
28175;SHT30;59417;44.788;10.334;2022-08-03T06:08:22;25.20;56.89
28175;SHT30;59417;44.788;10.334;2022-08-03T06:10:51;25.26;57.05
28175;SHT30;59417;44.788;10.334;2022-08-03T06:13:17;25.39;56.12
28175;SHT30;59417;44.788;10.334;2022-08-03T06:15:48;25.49;55.87
28175;SHT30;59417;44.788;10.334;2022-08-03T06:18:14;25.62;55.26
28175;SHT30;59417;44.788;10.334;2022-08-03T06:20:43;25.68;55.59
28175;SHT30;59417;44.788;10.334;2022-08-03T06:23:09;25.86;54.85
28175;SHT30;59417;44.788;10.334;2022-08-03T06:25:35;25.82;55.07
28175;SHT30;59417;44.788;10.334;2022-08-03T06:28:00;25.82;55.30
28175;SHT30;59417;44.788;10.334;2022-08-03T06:30:29;25.88;55.22
28175;SHT30;59417;44.788;10.334;2022-08-03T06:33:00;26.09;54.15
28175;SHT30;59417;44.788;10.334;2022-08-03T06:35:26;26.02;54.36
28175;SHT30;59417;44.788;10.334;2022-08-03T06:37:53;26.16;53.61
28175;SHT30;59417;44.788;10.334;2022-08-03T06:40:22;26.18;53.17
28175;SHT30;59417;44.788;10.334;2022-08-03T06:42:58;26.19;53.26
28175;SHT30;59417;44.788;10.334;2022-08-03T06:45:24;26.37;52.63
28175;SHT30;59417;44.788;10.334;2022-08-03T06:48:10;26.53;52.71
28175;SHT30;59417;44.788;10.334;2022-08-03T06:50:37;26.59;52.74
28175;SHT30;59417;44.788;10.334;2022-08-03T06:53:04;26.64;52.52
28175;SHT30;59417;44.788;10.334;2022-08-03T06:55:30;26.64;52.58
28175;SHT30;59417;44.788;10.334;2022-08-03T06:57:56;26.54;53.16
28175;SHT30;59417;44.788;10.334;2022-08-03T07:00:22;26.49;53.47
28175;SHT30;59417;44.788;10.334;2022-08-03T07:02:48;26.57;53.76
28175;SHT30;59417;44.788;10.334;2022-08-03T07:05:14;26.68;53.75
28175;SHT30;59417;44.788;10.334;2022-08-03T07:07:39;26.67;54.07
28175;SHT30;59417;44.788;10.334;2022-08-03T07:10:09;26.86;53.17
28175;SHT30;59417;44.788;10.334;2022-08-03T07:12:41;26.87;53.36
28175;SHT30;59417;44.788;10.334;2022-08-03T07:15:07;26.95;53.12
28175;SHT30;59417;44.788;10.334;2022-08-03T07:17:34;27.02;53.57
28175;SHT30;59417;44.788;10.334;2022-08-03T07:20:07;27.15;53.35
28175;SHT30;59417;44.788;10.334;2022-08-03T07:22:34;27.21;53.33
28175;SHT30;59417;44.788;10.334;2022-08-03T07:25:03;27.31;53.28
28175;SHT30;59417;44.788;10.334;2022-08-03T07:27:29;27.42;53.15
28175;SHT30;59417;44.788;10.334;2022-08-03T07:29:56;27.48;53.15
28175;SHT30;59417;44.788;10.334;2022-08-03T07:32:23;27.56;53.08
28175;SHT30;59417;44.788;10.334;2022-08-03T07:34:48;27.76;51.88
28175;SHT30;59417;44.788;10.334;2022-08-03T07:37:22;27.76;52.34
28175;SHT30;59417;44.788;10.334;2022-08-03T07:39:47;27.79;52.73
28175;SHT30;59417;44.788;10.334;2022-08-03T07:42:13;27.89;52.14
28175;SHT30;59417;44.788;10.334;2022-08-03T07:44:39;28.02;51.74
28175;SHT30;59417;44.788;10.334;2022-08-03T07:47:05;27.82;52.43
28175;SHT30;59417;44.788;10.334;2022-08-03T07:49:31;27.86;52.49
28175;SHT30;59417;44.788;10.334;2022-08-03T07:51:56;27.77;53.39
28175;SHT30;59417;44.788;10.334;2022-08-03T07:54:41;27.82;53.36
28175;SHT30;59417;44.788;10.334;2022-08-03T07:57:06;28.02;53.27
28175;SHT30;59417;44.788;10.334;2022-08-03T07:59:32;28.10;53.98
28175;SHT30;59417;44.788;10.334;2022-08-03T08:01:59;28.27;52.57
28175;SHT30;59417;44.788;10.334;2022-08-03T08:04:25;28.34;53.34
28175;SHT30;59417;44.788;10.334;2022-08-03T08:06:50;28.48;53.92
28175;SHT30;59417;44.788;10.334;2022-08-03T08:09:16;28.61;53.32
28175;SHT30;59417;44.788;10.334;2022-08-03T08:11:42;28.81;51.45
28175;SHT30;59417;44.788;10.334;2022-08-03T08:14:07;28.77;52.87
28175;SHT30;59417;44.788;10.334;2022-08-03T08:16:34;28.85;52.04
28175;SHT30;59417;44.788;10.334;2022-08-03T08:18:59;28.82;51.02
28175;SHT30;59417;44.788;10.334;2022-08-03T08:21:26;28.65;51.71
28175;SHT30;59417;44.788;10.334;2022-08-03T08:23:52;28.68;52.45
28175;SHT30;59417;44.788;10.334;2022-08-03T08:26:17;28.77;52.89
28175;SHT30;59417;44.788;10.334;2022-08-03T08:28:43;28.89;52.68
28175;SHT30;59417;44.788;10.334;2022-08-03T08:31:09;28.82;53.14
28175;SHT30;59417;44.788;10.334;2022-08-03T08:33:34;28.96;52.09
28175;SHT30;59417;44.788;10.334;2022-08-03T08:36:00;29.03;51.66
28175;SHT30;59417;44.788;10.334;2022-08-03T08:38:29;29.03;52.07
28175;SHT30;59417;44.788;10.334;2022-08-03T08:40:55;29.16;50.70
28175;SHT30;59417;44.788;10.334;2022-08-03T08:43:20;29.29;50.61
28175;SHT30;59417;44.788;10.334;2022-08-03T08:45:50;29.30;51.78
28175;SHT30;59417;44.788;10.334;2022-08-03T08:48:23;29.39;49.82
28175;SHT30;59417;44.788;10.334;2022-08-03T08:50:52;29.38;50.75
28175;SHT30;59417;44.788;10.334;2022-08-03T08:53:19;29.49;50.26
28175;SHT30;59417;44.788;10.334;2022-08-03T08:55:46;29.51;50.14
28175;SHT30;59417;44.788;10.334;2022-08-03T08:58:15;29.56;50.05
28175;SHT30;59417;44.788;10.334;2022-08-03T09:00:43;29.77;49.16
28175;SHT30;59417;44.788;10.334;2022-08-03T09:03:10;29.81;49.76
28175;SHT30;59417;44.788;10.334;2022-08-03T09:05:36;29.96;48.97
28175;SHT30;59417;44.788;10.334;2022-08-03T09:08:04;29.98;50.11
28175;SHT30;59417;44.788;10.334;2022-08-03T09:10:30;30.07;49.22
28175;SHT30;59417;44.788;10.334;2022-08-03T09:12:56;30.18;47.54
28175;SHT30;59417;44.788;10.334;2022-08-03T09:15:26;30.17;48.07
28175;SHT30;59417;44.788;10.334;2022-08-03T09:17:54;30.25;48.45
28175;SHT30;59417;44.788;10.334;2022-08-03T09:20:23;30.34;48.52
28175;SHT30;59417;44.788;10.334;2022-08-03T09:22:58;30.42;48.33
28175;SHT30;59417;44.788;10.334;2022-08-03T09:25:35;30.56;47.76
28175;SHT30;59417;44.788;10.334;2022-08-03T09:28:13;30.56;47.73
28175;SHT30;59417;44.788;10.334;2022-08-03T09:30:41;30.54;48.34
28175;SHT30;59417;44.788;10.334;2022-08-03T09:33:08;30.63;47.43
28175;SHT30;59417;44.788;10.334;2022-08-03T09:35:45;30.69;47.69
28175;SHT30;59417;44.788;10.334;2022-08-03T09:40:38;30.68;47.38
28175;SHT30;59417;44.788;10.334;2022-08-03T09:43:05;30.61;46.84
28175;SHT30;59417;44.788;10.334;2022-08-03T09:45:34;30.66;47.60
28175;SHT30;59417;44.788;10.334;2022-08-03T09:48:25;30.75;45.72
28175;SHT30;59417;44.788;10.334;2022-08-03T09:50:54;30.79;46.53
28175;SHT30;59417;44.788;10.334;2022-08-03T09:53:21;30.85;46.63
28175;SHT30;59417;44.788;10.334;2022-08-03T09:55:59;31.02;46.93
28175;SHT30;59417;44.788;10.334;2022-08-03T09:58:27;31.05;45.14
28175;SHT30;59417;44.788;10.334;2022-08-03T10:01:00;30.86;46.21
28175;SHT30;59417;44.788;10.334;2022-08-03T10:03:29;30.99;46.14
28175;SHT30;59417;44.788;10.334;2022-08-03T10:05:55;31.06;46.13
28175;SHT30;59417;44.788;10.334;2022-08-03T10:08:21;31.19;45.85
28175;SHT30;59417;44.788;10.334;2022-08-03T10:10:49;31.26;45.50
28175;SHT30;59417;44.788;10.334;2022-08-03T10:13:16;31.31;44.17
28175;SHT30;59417;44.788;10.334;2022-08-03T10:15:43;31.15;44.41
28175;SHT30;59417;44.788;10.334;2022-08-03T10:18:09;31.09;45.90
28175;SHT30;59417;44.788;10.334;2022-08-03T10:20:44;31.26;45.35
28175;SHT30;59417;44.788;10.334;2022-08-03T10:23:10;31.34;45.77
28175;SHT30;59417;44.788;10.334;2022-08-03T10:25:37;31.38;45.54
28175;SHT30;59417;44.788;10.334;2022-08-03T10:28:05;31.43;43.40
28175;SHT30;59417;44.788;10.334;2022-08-03T10:30:32;31.36;44.65
28175;SHT30;59417;44.788;10.334;2022-08-03T10:33:03;31.46;45.11
28175;SHT30;59417;44.788;10.334;2022-08-03T10:35:29;31.50;45.05
28175;SHT30;59417;44.788;10.334;2022-08-03T10:38:02;31.63;41.65
28175;SHT30;59417;44.788;10.334;2022-08-03T10:40:31;31.67;42.87
28175;SHT30;59417;44.788;10.334;2022-08-03T10:43:11;31.71;40.96
28175;SHT30;59417;44.788;10.334;2022-08-03T10:45:42;31.84;42.21
28175;SHT30;59417;44.788;10.334;2022-08-03T10:48:09;31.88;42.78
28175;SHT30;59417;44.788;10.334;2022-08-03T10:50:37;31.98;44.04
28175;SHT30;59417;44.788;10.334;2022-08-03T10:53:05;32.07;43.94
28175;SHT30;59417;44.788;10.334;2022-08-03T11:01:04;32.38;42.89
28175;SHT30;59417;44.788;10.334;2022-08-03T11:03:30;32.46;42.73
28175;SHT30;59417;44.788;10.334;2022-08-03T11:06:17;32.51;42.35
28175;SHT30;59417;44.788;10.334;2022-08-03T11:08:44;32.53;42.88
28175;SHT30;59417;44.788;10.334;2022-08-03T11:14:02;32.63;42.88
28175;SHT30;59417;44.788;10.334;2022-08-03T11:16:31;32.66;42.72
28175;SHT30;59417;44.788;10.334;2022-08-03T11:19:04;32.78;41.61
28175;SHT30;59417;44.788;10.334;2022-08-03T11:21:59;32.86;40.32
28175;SHT30;59417;44.788;10.334;2022-08-03T11:30:02;33.06;40.85
28175;SHT30;59417;44.788;10.334;2022-08-03T11:35:17;33.24;40.52
28175;SHT30;59417;44.788;10.334;2022-08-03T11:46:09;33.47;37.69
28175;SHT30;59417;44.788;10.334;2022-08-03T11:48:42;33.41;38.33
28175;SHT30;59417;44.788;10.334;2022-08-03T11:51:28;33.53;39.09
28175;SHT30;59417;44.788;10.334;2022-08-03T11:53:55;33.61;39.48
28175;SHT30;59417;44.788;10.334;2022-08-03T11:56:21;33.74;39.16
28175;SHT30;59417;44.788;10.334;2022-08-03T11:58:55;33.80;38.53
28175;SHT30;59417;44.788;10.334;2022-08-03T12:01:22;33.87;38.36
28175;SHT30;59417;44.788;10.334;2022-08-03T12:03:48;33.95;38.57
28175;SHT30;59417;44.788;10.334;2022-08-03T12:06:17;34.05;37.95
28175;SHT30;59417;44.788;10.334;2022-08-03T12:08:44;34.12;38.02
28175;SHT30;59417;44.788;10.334;2022-08-03T12:11:13;34.23;37.15
28175;SHT30;59417;44.788;10.334;2022-08-03T12:13:47;34.23;36.59
28175;SHT30;59417;44.788;10.334;2022-08-03T12:16:18;34.23;37.52
28175;SHT30;59417;44.788;10.334;2022-08-03T12:18:53;34.21;36.77
28175;SHT30;59417;44.788;10.334;2022-08-03T12:21:18;34.33;37.23
28175;SHT30;59417;44.788;10.334;2022-08-03T12:23:48;34.48;36.85
28175;SHT30;59417;44.788;10.334;2022-08-03T12:26:14;34.56;36.22
28175;SHT30;59417;44.788;10.334;2022-08-03T12:28:46;34.66;36.99
28175;SHT30;59417;44.788;10.334;2022-08-03T12:31:13;34.69;35.78
28175;SHT30;59417;44.788;10.334;2022-08-03T12:33:59;34.83;36.73
28175;SHT30;59417;44.788;10.334;2022-08-03T12:36:32;34.86;35.93
28175;SHT30;59417;44.788;10.334;2022-08-03T12:39:00;34.87;35.26
28175;SHT30;59417;44.788;10.334;2022-08-03T12:41:31;34.90;34.88
28175;SHT30;59417;44.788;10.334;2022-08-03T12:43:58;34.99;35.22
28175;SHT30;59417;44.788;10.334;2022-08-03T12:46:29;35.02;35.42
28175;SHT30;59417;44.788;10.334;2022-08-03T12:49:02;35.06;34.74
28175;SHT30;59417;44.788;10.334;2022-08-03T12:51:28;35.08;33.59
28175;SHT30;59417;44.788;10.334;2022-08-03T12:53:56;35.17;33.87
28175;SHT30;59417;44.788;10.334;2022-08-03T12:56:23;35.18;33.38
28175;SHT30;59417;44.788;10.334;2022-08-03T12:58:49;35.13;33.99
28175;SHT30;59417;44.788;10.334;2022-08-03T13:01:15;35.29;33.76
28175;SHT30;59417;44.788;10.334;2022-08-03T13:03:48;35.26;33.32
28175;SHT30;59417;44.788;10.334;2022-08-03T13:06:15;35.30;34.46
28175;SHT30;59417;44.788;10.334;2022-08-03T13:08:42;35.31;34.64
28175;SHT30;59417;44.788;10.334;2022-08-03T13:11:25;35.27;34.26
28175;SHT30;59417;44.788;10.334;2022-08-03T13:13:51;35.34;35.66
28175;SHT30;59417;44.788;10.334;2022-08-03T13:16:18;35.40;34.74
28175;SHT30;59417;44.788;10.334;2022-08-03T13:18:44;35.41;34.40
28175;SHT30;59417;44.788;10.334;2022-08-03T13:21:14;35.44;34.56
28175;SHT30;59417;44.788;10.334;2022-08-03T13:23:41;35.37;34.07
28175;SHT30;59417;44.788;10.334;2022-08-03T13:26:07;35.41;34.91
28175;SHT30;59417;44.788;10.334;2022-08-03T13:28:33;35.20;33.40
28175;SHT30;59417;44.788;10.334;2022-08-03T13:30:59;35.06;33.77
28175;SHT30;59417;44.788;10.334;2022-08-03T13:33:33;35.02;33.56
28175;SHT30;59417;44.788;10.334;2022-08-03T13:35:59;34.96;36.18
28175;SHT30;59417;44.788;10.334;2022-08-03T13:38:25;34.94;35.35
28175;SHT30;59417;44.788;10.334;2022-08-03T13:40:53;34.97;35.88
28175;SHT30;59417;44.788;10.334;2022-08-03T13:43:19;34.90;35.71
28175;SHT30;59417;44.788;10.334;2022-08-03T13:45:46;34.87;34.66
28175;SHT30;59417;44.788;10.334;2022-08-03T13:48:11;34.86;35.29
28175;SHT30;59417;44.788;10.334;2022-08-03T13:50:37;34.80;34.37
28175;SHT30;59417;44.788;10.334;2022-08-03T13:53:03;34.82;34.95
28175;SHT30;59417;44.788;10.334;2022-08-03T13:55:28;34.92;35.71
28175;SHT30;59417;44.788;10.334;2022-08-03T13:57:54;34.87;35.23
28175;SHT30;59417;44.788;10.334;2022-08-03T14:00:20;34.87;34.93
28175;SHT30;59417;44.788;10.334;2022-08-03T14:02:50;34.79;36.06
28175;SHT30;59417;44.788;10.334;2022-08-03T14:05:16;34.82;36.21
28175;SHT30;59417;44.788;10.334;2022-08-03T14:07:42;34.70;35.89
28175;SHT30;59417;44.788;10.334;2022-08-03T14:10:07;34.70;36.72
28175;SHT30;59417;44.788;10.334;2022-08-03T14:12:34;34.64;36.93
28175;SHT30;59417;44.788;10.334;2022-08-03T14:14:59;34.64;35.54
28175;SHT30;59417;44.788;10.334;2022-08-03T14:17:25;34.64;33.80
28175;SHT30;59417;44.788;10.334;2022-08-03T14:19:51;34.73;35.16
28175;SHT30;59417;44.788;10.334;2022-08-03T14:22:16;34.78;34.48
28175;SHT30;59417;44.788;10.334;2022-08-03T14:24:42;34.74;33.35
28175;SHT30;59417;44.788;10.334;2022-08-03T14:27:07;34.67;34.91
28175;SHT30;59417;44.788;10.334;2022-08-03T14:29:33;34.69;35.18
28175;SHT30;59417;44.788;10.334;2022-08-03T14:31:58;34.70;35.67
28175;SHT30;59417;44.788;10.334;2022-08-03T14:34:24;34.72;35.13
28175;SHT30;59417;44.788;10.334;2022-08-03T14:36:50;34.72;35.10
28175;SHT30;59417;44.788;10.334;2022-08-03T14:39:15;34.78;35.89
28175;SHT30;59417;44.788;10.334;2022-08-03T14:41:41;34.83;34.43
28175;SHT30;59417;44.788;10.334;2022-08-03T14:44:06;34.62;35.20
28175;SHT30;59417;44.788;10.334;2022-08-03T14:46:32;34.70;35.90
28175;SHT30;59417;44.788;10.334;2022-08-03T14:48:58;34.74;36.24
28175;SHT30;59417;44.788;10.334;2022-08-03T14:51:24;34.67;35.76
28175;SHT30;59417;44.788;10.334;2022-08-03T14:53:49;34.63;35.93
28175;SHT30;59417;44.788;10.334;2022-08-03T14:56:15;34.64;36.12
28175;SHT30;59417;44.788;10.334;2022-08-03T14:58:40;34.57;34.64
28175;SHT30;59417;44.788;10.334;2022-08-03T15:01:06;34.46;34.84
28175;SHT30;59417;44.788;10.334;2022-08-03T15:03:32;34.53;34.31
28175;SHT30;59417;44.788;10.334;2022-08-03T15:05:57;34.52;34.04
28175;SHT30;59417;44.788;10.334;2022-08-03T15:08:24;34.64;35.22
28175;SHT30;59417;44.788;10.334;2022-08-03T15:10:51;34.56;36.56
28175;SHT30;59417;44.788;10.334;2022-08-03T15:13:18;34.64;36.78
28175;SHT30;59417;44.788;10.334;2022-08-03T15:15:44;34.59;37.63
28175;SHT30;59417;44.788;10.334;2022-08-03T15:18:10;34.51;36.94
28175;SHT30;59417;44.788;10.334;2022-08-03T15:20:36;34.41;36.26
28175;SHT30;59417;44.788;10.334;2022-08-03T15:23:01;34.53;36.21
28175;SHT30;59417;44.788;10.334;2022-08-03T15:25:27;34.63;36.12
28175;SHT30;59417;44.788;10.334;2022-08-03T15:27:53;34.62;35.89
28175;SHT30;59417;44.788;10.334;2022-08-03T15:30:18;34.67;36.40
28175;SHT30;59417;44.788;10.334;2022-08-03T15:32:44;34.56;35.26
28175;SHT30;59417;44.788;10.334;2022-08-03T15:35:10;34.59;34.81
28175;SHT30;59417;44.788;10.334;2022-08-03T15:37:35;34.63;35.12
28175;SHT30;59417;44.788;10.334;2022-08-03T15:40:13;34.42;34.80
28175;SHT30;59417;44.788;10.334;2022-08-03T15:43:30;34.46;34.51
28175;SHT30;59417;44.788;10.334;2022-08-03T15:49:16;34.35;34.43
28175;SHT30;59417;44.788;10.334;2022-08-03T15:51:42;34.33;34.17
28175;SHT30;59417;44.788;10.334;2022-08-03T15:58:27;34.31;34.21
28175;SHT30;59417;44.788;10.334;2022-08-03T16:01:12;34.31;35.04
28175;SHT30;59417;44.788;10.334;2022-08-03T16:04:06;34.35;36.43
28175;SHT30;59417;44.788;10.334;2022-08-03T16:06:38;34.28;35.07
28175;SHT30;59417;44.788;10.334;2022-08-03T16:09:56;34.31;35.95
28175;SHT30;59417;44.788;10.334;2022-08-03T16:12:34;34.28;35.00
28175;SHT30;59417;44.788;10.334;2022-08-03T16:15:27;34.32;35.01